1925 NOT_NAMED (1925300N11144)


IBTrACS version v04r00. Visit IBTrACS website for data access.
Please direct all questions to the IBTrACS Q and A forum

Storm track - Intensity - Wind Radii - Intensity Data - Source Data - All data

Summary Information

Storm ID 1925300N11144
Start Oct 26 22Z
End Nov 1 22Z
ATCF IDs
Track status Best track data.

Storm track plot

Map of storm track

Intensity plots

No Intensity information for this storm


Radial wind information

No radial wind information for this storm


Position and Intensity Table

BASIN ISO_TIME_________ NATURE LAT LON
degrees north degrees east
WP 1925-10-26 22:00:00 NR 11.10 144.30
WP 1925-10-27 00:00:00 NR 11.12 143.96
WP 03:00:00 NR 11.16 143.45
WP 06:00:00 NR 11.18 142.95
WP 09:00:00 NR 11.20 142.46
WP 10:00:00 NR 11.20 142.30
WP 12:00:00 NR 11.20 141.99
WP 15:00:00 NR 11.19 141.53
WP 18:00:00 NR 11.18 141.06
WP 21:00:00 NR 11.19 140.57
WP 22:00:00 NR 11.20 140.40
WP 1925-10-28 00:00:00 NR 11.23 140.04
WP 03:00:00 NR 11.29 139.47
WP 06:00:00 NR 11.38 138.88
WP 09:00:00 NR 11.47 138.29
WP 10:00:00 NR 11.50 138.10
WP 12:00:00 NR 11.54 137.74
WP 15:00:00 NR 11.61 137.21
WP 18:00:00 NR 11.71 136.67
WP 21:00:00 NR 11.84 136.10
WP 22:00:00 NR 11.90 135.90
WP 1925-10-29 00:00:00 NR 12.04 135.47
WP 03:00:00 NR 12.30 134.78
WP 06:00:00 NR 12.59 134.09
WP 09:00:00 NR 12.90 133.41
WP 10:00:00 NR 13.00 133.20
WP 12:00:00 NR 13.20 132.79
WP 15:00:00 NR 13.50 132.20
WP 18:00:00 NR 13.80 131.66
WP 21:00:00 NR 14.10 131.16
WP 22:00:00 NR 14.20 131.00
WP 1925-10-30 00:00:00 NR 14.37 130.69
WP 03:00:00 NR 14.63 130.26
WP 06:00:00 NR 14.89 129.87
WP 09:00:00 NR 15.19 129.51
WP 10:00:00 NR 15.30 129.40
WP 12:00:00 NR 15.56 129.16
WP 15:00:00 NR 15.99 128.83
WP 18:00:00 NR 16.43 128.53
WP 21:00:00 NR 16.86 128.28
WP 22:00:00 NR 17.00 128.20
WP 1925-10-31 00:00:00 NR 17.24 128.07
WP 03:00:00 NR 17.57 127.91
WP 06:00:00 NR 17.88 127.77
WP 09:00:00 NR 18.19 127.65
WP 10:00:00 NR 18.30 127.60
WP 12:00:00 NR 18.49 127.48
WP 15:00:00 NR 18.78 127.30
WP 18:00:00 NR 19.12 127.11
WP 21:00:00 NR 19.54 126.95
WP 22:00:00 NR 19.70 126.90
WP 1925-11-01 00:00:00 NR 20.09 126.79
WP 03:00:00 NR 20.76 126.65
WP 06:00:00 NR 21.50 126.54
WP 09:00:00 NR 22.25 126.50
WP 10:00:00 NR 22.50 126.50
WP 12:00:00 NR 22.98 126.54
WP 15:00:00 NR 23.67 126.65
WP 18:00:00 NR 24.34 126.82
WP 21:00:00 NR 24.99 127.03
WP 22:00:00 NR 25.20 127.10

Source Information

Agency Information
USA
TOKYO
CMA
HKO
NEWDELHI
REUNION
BOM
NADI
WELLINGTON
DS824
TD9636 cons_worldwide_trop_cyclone_18710101-19891231-003:Line=7528
TD9635
NEUMANN
MLC

All available IBTrACS Data

SEASON BASIN SUBBASIN ISO_TIME_________ NATURE LAT LON DIST2LAND LANDFALL IFLAG USA SSHS TD9636 LAT TD9636 LON TD9636 STAGE STORM SPEED STORM DIR
Year degrees north degrees east km km 1 degrees north degrees east kts degrees
1925 WP MM 1925-10-26 22:00:00 NR 11.10 144.30 1500 1500 __________O___ -1 11.10 144.30 4 10 274
1925 WP MM 1925-10-27 00:00:00 NR 11.12 143.96 1506 1508 __________P___ -1 11.12 143.96 4 10 274
1925 WP MM 03:00:00 NR 11.16 143.45 1531 1525 __________P___ -1 11.16 143.45 4 10 273
1925 WP MM 06:00:00 NR 11.18 142.95 1525 1511 __________P___ -1 11.18 142.95 4 10 272
1925 WP MM 09:00:00 NR 11.20 142.46 1511 1504 __________P___ -1 11.20 142.46 4 10 271
1925 WP MM 10:00:00 NR 11.20 142.30 1504 1494 __________O___ -1 11.20 142.30 4 9 270
1925 WP MM 12:00:00 NR 11.20 141.99 1494 1479 __________P___ -1 11.20 141.99 4 9 269
1925 WP MM 15:00:00 NR 11.19 141.53 1479 1462 __________P___ -1 11.19 141.53 4 9 269
1925 WP MM 18:00:00 NR 11.18 141.06 1462 1441 __________P___ -1 11.18 141.06 4 9 270
1925 WP MM 21:00:00 NR 11.19 140.57 1441 1433 __________P___ -1 11.19 140.57 4 10 272
1925 WP MM 22:00:00 NR 11.20 140.40 1433 1418 __________O___ -1 11.20 140.40 4 11 274
1925 WP MM 1925-10-28 00:00:00 NR 11.23 140.04 1418 1412 __________P___ -1 11.23 140.04 4 11 276
1925 WP MM 03:00:00 NR 11.29 139.47 1412 1399 __________P___ -1 11.29 139.47 4 11 277
1925 WP MM 06:00:00 NR 11.38 138.88 1404 1348 __________P___ -1 11.38 138.88 4 12 279
1925 WP MM 09:00:00 NR 11.47 138.29 1348 1327 __________P___ -1 11.47 138.29 4 12 279
1925 WP MM 10:00:00 NR 11.50 138.10 1327 1284 __________O___ -1 11.50 138.10 4 11 278
1925 WP MM 12:00:00 NR 11.54 137.74 1284 1233 __________P___ -1 11.54 137.74 4 11 277
1925 WP MM 15:00:00 NR 11.61 137.21 1233 1182 __________P___ -1 11.61 137.21 4 11 279
1925 WP MM 18:00:00 NR 11.71 136.67 1182 1121 __________P___ -1 11.71 136.67 4 11 282
1925 WP MM 21:00:00 NR 11.84 136.10 1121 1103 __________P___ -1 11.84 136.10 4 12 285
1925 WP MM 22:00:00 NR 11.90 135.90 1103 1063 __________O___ -1 11.90 135.90 4 13 288
1925 WP MM 1925-10-29 00:00:00 NR 12.04 135.47 1063 991 __________P___ -1 12.04 135.47 4 14 290
1925 WP MM 03:00:00 NR 12.30 134.78 991 921 __________P___ -1 12.30 134.78 4 15 292
1925 WP MM 06:00:00 NR 12.59 134.09 921 854 __________P___ -1 12.59 134.09 4 15 294
1925 WP MM 09:00:00 NR 12.90 133.41 854 835 __________P___ -1 12.90 133.41 4 14 295
1925 WP MM 10:00:00 NR 13.00 133.20 835 800 __________O___ -1 13.00 133.20 4 14 296
1925 WP MM 12:00:00 NR 13.20 132.79 800 741 __________P___ -1 13.20 132.79 4 13 297
1925 WP MM 15:00:00 NR 13.50 132.20 741 695 __________P___ -1 13.50 132.20 4 13 299
1925 WP MM 18:00:00 NR 13.80 131.66 695 653 __________P___ -1 13.80 131.66 4 12 301
1925 WP MM 21:00:00 NR 14.10 131.16 653 636 __________P___ -1 14.10 131.16 4 11 302
1925 WP MM 22:00:00 NR 14.20 131.00 636 610 __________O___ -1 14.20 131.00 4 11 301
1925 WP MM 1925-10-30 00:00:00 NR 14.37 130.69 614 584 __________P___ -1 14.37 130.69 4 10 301
1925 WP MM 03:00:00 NR 14.63 130.26 584 557 __________P___ -1 14.63 130.26 4 10 303
1925 WP MM 06:00:00 NR 14.89 129.87 563 547 __________P___ -1 14.89 129.87 4 9 308
1925 WP MM 09:00:00 NR 15.19 129.51 547 545 __________P___ -1 15.19 129.51 4 9 312
1925 WP MM 10:00:00 NR 15.30 129.40 545 544 __________O___ -1 15.30 129.40 4 10 317
1925 WP MM 12:00:00 NR 15.56 129.16 550 528 __________P___ -1 15.56 129.16 4 11 321
1925 WP MM 15:00:00 NR 15.99 128.83 528 521 __________P___ -1 15.99 128.83 4 11 325
1925 WP MM 18:00:00 NR 16.43 128.53 521 522 __________P___ -1 16.43 128.53 4 10 329
1925 WP MM 21:00:00 NR 16.86 128.28 536 528 __________P___ -1 16.86 128.28 4 10 331
1925 WP MM 22:00:00 NR 17.00 128.20 535 534 __________O___ -1 17.00 128.20 4 8 332
1925 WP MM 1925-10-31 00:00:00 NR 17.24 128.07 541 541 __________P___ -1 17.24 128.07 4 8 334
1925 WP MM 03:00:00 NR 17.57 127.91 557 557 __________P___ -1 17.57 127.91 4 7 336
1925 WP MM 06:00:00 NR 17.88 127.77 571 557 __________P___ -1 17.88 127.77 4 7 338
1925 WP MM 09:00:00 NR 18.19 127.65 557 557 __________P___ -1 18.19 127.65 4 7 338
1925 WP MM 10:00:00 NR 18.30 127.60 559 548 __________O___ -1 18.30 127.60 4 7 332
1925 WP MM 12:00:00 NR 18.49 127.48 548 528 __________P___ -1 18.49 127.48 4 7 329
1925 WP MM 15:00:00 NR 18.78 127.30 528 511 __________P___ -1 18.78 127.30 4 7 331
1925 WP MM 18:00:00 NR 19.12 127.11 511 499 __________P___ -1 19.12 127.11 4 8 336
1925 WP MM 21:00:00 NR 19.54 126.95 499 501 __________P___ -1 19.54 126.95 4 9 341
1925 WP MM 22:00:00 NR 19.70 126.90 504 501 __________O___ -1 19.70 126.90 4 12 345
1925 WP MM 1925-11-01 00:00:00 NR 20.09 126.79 509 508 __________P___ -1 20.09 126.79 4 13 347
1925 WP MM 03:00:00 NR 20.76 126.65 524 524 __________P___ -1 20.76 126.65 4 14 351
1925 WP MM 06:00:00 NR 21.50 126.54 554 529 __________P___ -1 21.50 126.54 4 15 355
1925 WP MM 09:00:00 NR 22.25 126.50 529 519 __________P___ -1 22.25 126.50 4 15 357
1925 WP MM 10:00:00 NR 22.50 126.50 519 497 __________O___ -1 22.50 126.50 4 15 3
1925 WP MM 12:00:00 NR 22.98 126.54 497 487 __________P___ -1 22.98 126.54 4 14 7
1925 WP MM 15:00:00 NR 23.67 126.65 495 488 __________P___ -1 23.67 126.65 4 14 11
1925 WP MM 18:00:00 NR 24.34 126.82 491 489 __________P___ -1 24.34 126.82 4 14 15
1925 WP MM 21:00:00 NR 24.99 127.03 503 503 __________P___ -1 24.99 127.03 4 14 16
1925 WP MM 22:00:00 NR 25.20 127.10 513 __________O___ -1 25.20 127.10 4 14 19